Time;durP1;ratioP1;P1;durP2;ratioP2;P2;SDS_P1;SDS_P2;PMS_P1;PMS_P2;Temp;Humidity;BMP_temperature;BMP_pressure;BME280_temperature;BME280_humidity;BME280_pressure;Samples;Min_cycle;Max_cycle;Signal;HPM_P1;HPM_P2
2023/09/25 00:02:03;;;;;;;5.47;4.27;;;8.00;99.90;;;8.60;96.75;98720.00;10431281;28;20304;-85
2023/09/25 00:07:06;;;;;;;4.53;4.13;;;7.90;99.90;;;8.62;97.02;98725.25;10425650;28;20648;-83
2023/09/25 00:12:10;;;;;;;4.30;3.90;;;7.90;99.90;;;8.52;97.30;98709.19;10430648;28;20280;-85
2023/09/25 00:17:14;;;;;;;5.30;4.80;;;7.80;99.90;;;8.38;98.31;98713.94;10432007;28;20226;-85
2023/09/25 00:22:18;;;;;;;4.63;4.33;;;7.70;99.90;;;8.23;98.89;98709.41;10426944;28;20237;-83
2023/09/25 00:27:21;;;;;;;5.53;4.97;;;7.60;99.90;;;8.32;98.92;98711.81;10430997;28;20217;-84
2023/09/25 00:32:26;;;;;;;5.30;4.90;;;7.60;99.90;;;8.24;99.24;98707.75;10428437;28;21035;-81
2023/09/25 00:37:30;;;;;;;4.57;4.17;;;7.60;99.90;;;8.28;98.62;98699.59;10434430;28;21194;-83
2023/09/25 00:42:34;;;;;;;5.93;4.90;;;7.60;99.90;;;8.28;98.36;98697.94;10431512;28;20263;-84
2023/09/25 00:47:39;;;;;;;4.80;4.30;;;7.60;99.90;;;8.29;98.78;98697.16;10430922;28;20239;-85
2023/09/25 00:52:44;;;;;;;5.90;5.33;;;7.70;99.90;;;8.39;99.87;98692.84;10432998;28;20256;-85
2023/09/25 00:57:50;;;;;;;4.80;4.40;;;7.70;99.90;;;8.39;99.71;98700.50;10432999;28;20714;-85
2023/09/25 01:02:55;;;;;;;5.27;4.77;;;7.70;99.90;;;8.34;99.56;98692.44;10439540;28;20266;-85
2023/09/25 01:07:59;;;;;;;5.47;5.00;;;7.70;99.90;;;8.42;99.76;98690.56;10438206;28;20240;-84
2023/09/25 01:13:03;;;;;;;5.97;5.07;;;7.70;99.90;;;8.45;99.44;98690.78;10437099;28;20228;-83
2023/09/25 01:18:08;;;;;;;5.70;5.20;;;7.70;99.90;;;8.44;98.91;98683.91;10442076;28;20262;-84
2023/09/25 01:23:14;;;;;;;5.30;4.80;;;7.70;99.90;;;8.41;99.72;98679.44;10441378;28;20222;-84
2023/09/25 01:28:17;;;;;;;5.20;4.80;;;7.70;99.90;;;8.44;99.59;98669.53;10438952;28;20256;-84
2023/09/25 01:33:21;;;;;;;6.13;5.53;;;7.70;99.90;;;8.38;99.97;98665.56;10440325;28;20263;-84
2023/09/25 01:38:25;;;;;;;5.43;4.93;;;7.70;99.90;;;8.37;99.08;98659.56;10435552;28;20241;-85
2023/09/25 01:43:29;;;;;;;5.50;5.00;;;7.60;99.90;;;8.37;99.39;98654.47;10440534;28;20253;-84
2023/09/25 01:48:32;;;;;;;5.17;4.67;;;7.60;99.90;;;8.19;99.64;98653.06;10442965;28;20225;-84
2023/09/25 01:53:37;;;;;;;5.13;4.63;;;7.50;99.90;;;8.12;99.87;98650.00;10437146;28;20249;-86
2023/09/25 01:58:41;;;;;;;5.67;5.20;;;7.40;99.90;;;8.21;99.22;98643.84;10429782;28;20229;-84
2023/09/25 02:03:46;;;;;;;5.60;4.83;;;7.50;99.90;;;8.31;99.34;98648.91;10439869;28;20237;-84
2023/09/25 02:08:51;;;;;;;5.10;4.70;;;7.50;99.90;;;8.23;98.58;98648.31;10437270;28;20225;-84
2023/09/25 02:13:54;;;;;;;4.90;4.60;;;7.40;99.90;;;8.11;98.29;98642.25;10438825;28;20722;-85
2023/09/25 02:18:58;;;;;;;4.53;4.10;;;7.20;99.90;;;7.96;98.26;98644.47;10443262;28;20214;-84
2023/09/25 02:24:03;;;;;;;5.20;4.63;;;7.10;99.90;;;7.92;98.04;98641.53;10439944;28;20229;-85
2023/09/25 02:29:06;;;;;;;4.10;3.80;;;7.00;99.90;;;7.73;97.17;98639.22;10440084;28;20300;-84
2023/09/25 02:34:14;;;;;;;5.00;4.10;;;6.80;99.90;;;7.49;97.62;98631.34;10438800;28;20231;-84
2023/09/25 02:39:19;;;;;;;6.30;4.50;;;6.70;99.90;;;7.45;97.53;98626.78;10440054;28;20295;-84
2023/09/25 02:44:22;;;;;;;4.93;4.43;;;6.70;99.90;;;7.43;98.04;98631.72;10438819;28;20236;-84
2023/09/25 02:49:25;;;;;;;5.20;4.80;;;6.70;99.90;;;7.43;99.06;98631.72;10443437;28;20229;-85
2023/09/25 02:54:30;;;;;;;4.87;4.27;;;6.70;99.90;;;7.52;99.90;98628.16;10433196;28;21839;-84
2023/09/25 02:59:34;;;;;;;4.50;4.20;;;6.80;99.90;;;7.47;99.25;98625.25;10436610;28;20221;-83
2023/09/25 03:04:38;;;;;;;4.63;4.27;;;6.70;99.90;;;7.46;99.66;98618.38;10435773;28;20252;-80
2023/09/25 03:09:43;;;;;;;4.67;4.20;;;6.70;99.90;;;7.50;99.95;98612.78;10438481;28;20229;-80
2023/09/25 03:14:46;;;;;;;4.87;4.47;;;6.80;99.90;;;7.64;100.00;98618.97;10434953;28;20222;-82
2023/09/25 03:19:52;;;;;;;4.83;4.23;;;7.00;99.90;;;7.73;99.95;98616.31;10434293;28;20234;-84
2023/09/25 03:24:57;;;;;;;4.93;4.53;;;7.00;99.90;;;7.72;100.00;98617.06;10438710;28;20233;-84
2023/09/25 03:30:01;;;;;;;4.60;4.20;;;7.10;99.90;;;7.77;100.00;98615.78;10441902;28;20213;-82
2023/09/25 03:35:05;;;;;;;4.77;4.37;;;7.10;99.90;;;7.84;100.00;98607.84;10445437;28;20209;-84
2023/09/25 03:40:12;;;;;;;6.23;4.63;;;7.20;99.90;;;7.95;100.00;98614.69;10437300;28;20974;-84
2023/09/25 03:45:16;;;;;;;5.50;5.00;;;7.30;99.90;;;7.94;100.00;98623.09;10429383;28;20233;-83
2023/09/25 03:50:20;;;;;;;6.07;5.07;;;7.30;99.90;;;7.94;100.00;98609.47;10441342;28;20579;-83
2023/09/25 03:55:25;;;;;;;5.03;4.63;;;7.20;99.90;;;7.80;99.71;98614.34;10444706;28;20291;-83
2023/09/25 04:00:28;;;;;;;35.63;29.93;;;7.00;99.90;;;7.67;97.55;98601.44;10447561;28;20224;-83
2023/09/25 04:05:33;;;;;;;5.30;4.90;;;6.80;99.90;;;7.32;97.90;98599.44;10448026;28;20247;-82
2023/09/25 04:10:38;;;;;;;4.47;4.07;;;6.50;99.90;;;7.12;98.72;98610.53;10438626;28;20252;-83
2023/09/25 04:15:42;;;;;;;4.20;3.90;;;6.30;99.90;;;7.05;99.65;98598.09;10440514;28;20270;-83
2023/09/25 04:20:45;;;;;;;4.67;4.33;;;6.30;99.90;;;7.08;100.00;98602.53;10435204;28;20288;-84
2023/09/25 04:25:54;;;;;;;4.80;4.40;;;6.40;99.90;;;7.26;100.00;98598.94;10438299;28;20905;-85
2023/09/25 04:30:58;;;;;;;4.67;4.27;;;6.50;99.90;;;7.32;100.00;98607.06;10451134;28;20218;-84
2023/09/25 04:36:01;;;;;;;5.80;5.40;;;6.60;99.90;;;7.29;99.41;98604.28;10445950;28;20231;-83
2023/09/25 04:41:06;;;;;;;5.10;4.70;;;6.50;99.90;;;7.30;100.00;98606.09;10438911;28;20230;-82
2023/09/25 04:46:12;;;;;;;8.90;7.07;;;6.50;99.90;;;7.30;99.41;98617.91;10434514;28;20237;-83
2023/09/25 04:51:16;;;;;;;4.53;4.13;;;6.50;99.90;;;7.18;100.00;98615.22;10437153;28;20272;-82
2023/09/25 04:56:22;;;;;;;5.80;5.20;;;6.40;99.90;;;7.13;100.00;98621.63;10435844;28;20237;-83
2023/09/25 05:01:25;;;;;;;6.90;6.20;;;6.40;99.90;;;7.20;100.00;98617.13;10442179;28;20237;-83
2023/09/25 05:06:29;;;;;;;7.63;6.83;;;6.50;99.90;;;7.17;100.00;98611.81;10435515;28;20232;-84
2023/09/25 05:11:33;;;;;;;7.27;6.03;;;6.50;99.90;;;7.30;100.00;98626.44;10438006;28;20241;-84
2023/09/25 05:16:37;;;;;;;6.53;5.93;;;6.60;99.90;;;7.35;100.00;98620.03;10462793;28;20635;-82
2023/09/25 05:21:40;;;;;;;4.63;4.23;;;6.60;99.90;;;7.36;100.00;98628.59;10436459;28;20225;-83
2023/09/25 05:26:45;;;;;;;5.77;4.30;;;6.60;99.90;;;7.29;100.00;98633.91;10437427;28;20275;-82
2023/09/25 05:31:48;;;;;;;5.03;4.53;;;6.60;99.90;;;7.26;100.00;98628.59;10438276;28;20250;-83
2023/09/25 05:36:53;;;;;;;5.60;5.07;;;6.60;99.90;;;7.32;100.00;98618.91;10441369;28;20222;-84
2023/09/25 05:41:57;;;;;;;4.10;3.80;;;6.60;99.90;;;7.43;100.00;98613.03;10432156;28;20233;-82
2023/09/25 05:47:02;;;;;;;4.73;4.07;;;6.70;99.90;;;7.65;100.00;98616.56;10438143;28;20224;-82
2023/09/25 05:52:06;;;;;;;4.63;3.73;;;6.90;99.90;;;7.74;100.00;98618.97;10439511;28;20234;-84
2023/09/25 05:57:11;;;;;;;3.80;3.60;;;6.90;99.90;;;7.83;100.00;98621.34;10440487;28;20226;-84
2023/09/25 06:02:14;;;;;;;3.67;3.37;;;7.00;99.90;;;8.00;100.00;98617.59;10433173;28;20675;-84
2023/09/25 06:07:18;;;;;;;3.73;3.23;;;7.20;99.90;;;8.15;99.91;98623.00;10436860;28;20232;-83
2023/09/25 06:12:22;;;;;;;3.37;3.17;;;7.40;99.90;;;8.72;99.26;98628.31;10436574;28;20233;-84
2023/09/25 06:17:26;;;;;;;3.23;2.93;;;7.90;99.90;;;9.21;98.22;98611.63;10442202;28;20238;-83
2023/09/25 06:22:30;;;;;;;4.00;3.50;;;8.40;99.90;;;10.09;95.96;98616.31;10433568;28;20308;-84
2023/09/25 06:27:35;;;;;;;3.40;3.03;;;9.20;99.90;;;10.77;91.33;98602.38;10448767;28;20225;-83
2023/09/25 06:32:39;;;;;;;3.97;3.67;;;9.70;99.90;;;11.78;90.07;98594.50;10444839;28;20226;-86
2023/09/25 06:37:42;;;;;;;3.20;2.90;;;10.40;99.90;;;12.79;83.11;98593.09;10441810;28;20217;-85
2023/09/25 06:42:47;;;;;;;4.00;3.67;;;11.20;99.90;;;13.57;79.50;98590.03;10440906;28;20243;-84
2023/09/25 06:47:51;;;;;;;3.83;3.53;;;11.60;99.90;;;14.67;71.98;98574.63;10441213;28;20221;-83
2023/09/25 06:52:54;;;;;;;4.68;4.00;;;12.50;99.90;;;15.17;70.00;98578.94;10445764;28;20249;-83
2023/09/25 06:57:59;;;;;;;4.10;3.70;;;13.30;99.90;;;14.89;71.75;98580.91;10444852;28;20998;-84
2023/09/25 07:03:02;;;;;;;4.45;4.15;;;13.20;99.90;;;15.07;72.07;98589.56;10445663;28;20229;-82
2023/09/25 07:08:06;;;;;;;4.40;4.10;;;13.60;99.90;;;15.25;70.45;98592.19;10445307;28;20225;-85
2023/09/25 07:13:11;;;;;;;4.72;4.32;;;13.60;99.90;;;15.43;70.91;98580.25;10440266;28;20240;-84
2023/09/25 07:18:16;;;;;;;5.25;4.85;;;13.90;99.90;;;15.76;69.80;98586.19;10445346;28;20230;-84
2023/09/25 07:23:20;;;;;;;4.82;4.32;;;14.20;99.90;;;16.04;70.03;98595.25;10443142;28;20295;-83
2023/09/25 07:28:25;;;;;;;5.40;4.90;;;14.70;99.90;;;16.14;70.12;98602.63;10450923;28;20229;-83
2023/09/25 07:33:29;;;;;;;5.30;4.80;;;14.70;99.90;;;16.45;69.81;98596.28;10447769;28;20224;-85
2023/09/25 07:38:33;;;;;;;6.25;5.63;;;15.20;99.90;;;16.76;68.46;98596.00;10448112;28;20247;-85
2023/09/25 07:43:38;;;;;;;4.35;3.95;;;15.60;99.90;;;16.87;68.93;98588.75;10449058;28;20379;-83
2023/09/25 07:48:59;;;;;;;4.75;3.95;;;15.90;99.90;;;17.11;67.25;98597.56;10443944;28;20217;-85
2023/09/25 07:54:03;;;;;;;4.65;4.20;;;16.10;99.90;;;17.10;66.95;98600.94;10449953;28;20237;-84
2023/09/25 07:59:08;;;;;;;5.53;4.45;;;16.10;99.90;;;17.41;66.08;98607.44;10444408;28;20225;-83
2023/09/25 08:04:11;;;;;;;4.97;4.15;;;16.40;99.90;;;17.42;66.50;98603.16;10441324;28;20319;-83
2023/09/25 08:09:19;;;;;;;5.72;3.72;;;16.40;99.90;;;17.85;65.53;98611.00;10445158;28;20264;-84
2023/09/25 08:14:25;;;;;;;4.75;4.05;;;17.10;99.90;;;18.10;64.27;98609.41;10450956;28;20256;-84
2023/09/25 08:19:28;;;;;;;6.00;3.90;;;17.30;99.90;;;18.58;64.34;98604.34;10452433;28;20239;-86
2023/09/25 08:24:32;;;;;;;5.65;4.10;;;17.80;99.90;;;18.86;63.35;98601.97;10459163;28;20248;-85
2023/09/25 08:29:36;;;;;;;3.25;2.95;;;18.00;99.90;;;19.09;60.01;98607.13;10464785;28;20229;-84
2023/09/25 08:34:41;;;;;;;3.45;3.17;;;18.50;99.90;;;19.35;56.10;98598.53;10462986;28;20216;-83
2023/09/25 08:39:44;;;;;;;3.30;3.00;;;18.90;99.90;;;19.71;55.33;98590.22;10468860;28;20233;-84
2023/09/25 08:44:51;;;;;;;3.97;3.28;;;19.30;99.90;;;19.83;52.45;98594.06;10454460;28;20221;-84
2023/09/25 08:49:56;;;;;;;3.08;2.88;;;19.40;97.80;;;20.25;51.55;98602.31;10461283;28;20225;-85
2023/09/25 08:55:00;;;;;;;2.78;2.53;;;19.70;97.20;;;20.04;50.60;98602.53;10451946;28;20260;-83
2023/09/25 09:00:11;;;;;;;2.55;2.35;;;19.40;96.40;;;20.20;50.60;98601.28;10454278;28;20225;-84
2023/09/25 09:05:15;;;;;;;3.05;2.47;;;19.60;96.40;;;20.41;48.83;98598.47;10449635;28;20264;-84
2023/09/25 09:10:18;;;;;;;2.50;2.30;;;19.90;94.80;;;20.79;48.33;98597.03;10455946;28;20258;-83
2023/09/25 09:15:29;;;;;;;2.67;2.47;;;20.20;94.50;;;21.00;47.98;98594.13;10447798;28;20233;-84
2023/09/25 09:20:37;;;;;;;3.08;2.67;;;20.50;93.90;;;21.14;47.91;98603.19;10459589;28;20237;-85
2023/09/25 09:25:40;;;;;;;2.47;2.28;;;20.60;93.70;;;21.33;47.20;98591.56;10461699;28;20217;-83
2023/09/25 09:30:45;;;;;;;3.25;2.10;;;20.80;93.00;;;21.14;46.99;98600.59;10462981;28;20317;-85
2023/09/25 09:35:51;;;;;;;2.97;2.30;;;20.70;92.80;;;21.25;46.92;98592.22;10459028;28;20303;-83
2023/09/25 09:40:55;;;;;;;3.20;2.42;;;20.70;92.80;;;21.36;45.96;98595.97;10454680;28;20222;-83
2023/09/25 09:46:01;;;;;;;3.88;2.50;;;20.80;92.20;;;20.99;45.35;98599.31;10465057;28;20229;-83
2023/09/25 09:51:13;;;;;;;2.78;2.45;;;20.30;91.50;;;20.85;45.78;98588.53;10465606;28;20332;-83
2023/09/25 09:56:18;;;;;;;3.03;2.28;;;20.40;92.00;;;21.32;44.21;98583.75;10456689;28;20226;-84
2023/09/25 10:01:24;;;;;;;2.88;2.60;;;20.80;90.80;;;21.16;44.92;98579.84;10461823;28;20221;-83
2023/09/25 10:06:29;;;;;;;2.30;2.20;;;20.70;90.70;;;21.50;43.84;98575.56;10452751;28;20214;-84
2023/09/25 10:11:33;;;;;;;2.60;2.33;;;21.00;90.10;;;21.52;43.11;98581.69;10458800;28;20264;-83
2023/09/25 10:17:01;;;;;;;2.58;2.38;;;21.10;88.70;;;21.13;41.91;98569.38;10455863;28;20247;-83
2023/09/25 10:22:12;;;;;;;2.90;2.70;;;20.60;87.10;;;21.30;41.69;98570.69;10458509;28;20236;-84
2023/09/25 10:27:17;;;;;;;3.03;2.28;;;20.80;86.90;;;21.30;42.89;98569.81;10454036;28;20229;-83
2023/09/25 10:32:32;;;;;;;2.47;2.28;;;20.70;88.10;;;21.15;43.07;98573.78;10459777;28;20225;-83
2023/09/25 10:37:37;;;;;;;2.72;2.33;;;20.70;88.40;;;21.15;41.91;98560.78;10456668;28;20218;-83
2023/09/25 10:42:41;;;;;;;2.85;2.00;;;20.80;86.00;;;21.38;42.74;98567.47;10459967;28;20363;-84
2023/09/25 10:47:46;;;;;;;2.40;2.20;;;20.90;87.30;;;21.52;42.04;98566.97;10458415;28;20225;-82
2023/09/25 10:52:49;;;;;;;2.67;2.47;;;21.10;86.70;;;21.64;42.05;98565.50;10457161;28;20222;-83
2023/09/25 10:57:53;;;;;;;2.25;2.10;;;21.20;86.40;;;21.46;42.30;98566.81;10461751;28;20353;-85
2023/09/25 11:02:58;;;;;;;2.95;2.30;;;21.00;87.10;;;21.69;41.07;98553.47;10459464;28;20257;-84
2023/09/25 11:08:04;;;;;;;3.50;2.33;;;21.20;84.90;;;21.37;41.40;98558.75;10451807;28;20241;-85
2023/09/25 11:13:08;;;;;;;2.40;2.20;;;21.00;85.20;;;21.55;41.69;98547.94;10452166;28;20656;-83
2023/09/25 11:18:13;;;;;;;2.80;2.15;;;21.10;85.40;;;21.49;41.28;98546.06;10455904;28;20576;-83
2023/09/25 11:23:17;;;;;;;2.15;2.03;;;20.90;85.10;;;21.57;41.10;98547.13;10449785;28;20222;-83
2023/09/25 11:28:27;;;;;;;3.05;2.00;;;21.00;85.00;;;21.64;41.77;98547.28;10452425;28;20237;-86
2023/09/25 11:33:32;;;;;;;2.40;2.20;;;21.10;86.80;;;21.54;41.28;98538.38;10448705;28;20225;-84
2023/09/25 11:38:35;;;;;;;2.15;2.00;;;20.90;85.50;;;21.75;42.44;98532.81;10451023;28;20285;-85
2023/09/25 11:43:39;;;;;;;2.58;2.38;;;21.20;86.80;;;21.83;42.57;98541.66;10445166;28;20225;-85
2023/09/25 11:48:44;;;;;;;2.13;2.03;;;21.20;86.90;;;21.96;42.11;98543.72;10448816;28;20225;-84
2023/09/25 11:53:48;;;;;;;3.60;2.20;;;21.30;86.90;;;21.63;42.14;98542.91;10450577;28;20230;-86
2023/09/25 11:58:51;;;;;;;2.20;2.00;;;21.10;85.40;;;21.70;42.83;98529.22;10448360;28;20241;-84
2023/09/25 12:03:57;;;;;;;2.60;2.40;;;21.10;87.30;;;21.95;42.51;98531.56;10446325;28;20229;-84
2023/09/25 12:09:10;;;;;;;2.25;2.13;;;21.30;87.30;;;22.13;40.51;98544.09;10464679;28;20234;-84
2023/09/25 12:14:14;;;;;;;3.08;2.00;;;21.60;84.00;;;21.71;40.87;98542.25;10453534;28;20233;-84
2023/09/25 12:19:19;;;;;;;2.17;2.00;;;21.10;84.10;;;21.71;41.46;98537.03;10446813;28;20233;-85
2023/09/25 12:24:23;;;;;;;2.33;1.92;;;21.20;85.30;;;21.78;41.64;98541.56;10453901;28;20303;-85
2023/09/25 12:29:27;;;;;;;2.20;2.00;;;21.20;85.70;;;21.92;41.73;98539.28;10472025;28;20235;-82
2023/09/25 12:34:31;;;;;;;2.22;2.03;;;21.40;85.80;;;22.07;41.25;98545.69;10463328;28;20472;-85
2023/09/25 12:39:35;;;;;;;2.03;1.70;;;21.50;85.30;;;22.04;41.56;98531.75;10457592;28;20287;-85
2023/09/25 12:44:39;;;;;;;2.13;1.90;;;21.50;85.20;;;22.18;41.96;98524.28;10450385;28;20225;-85
2023/09/25 12:49:44;;;;;;;2.83;2.20;;;21.70;86.00;;;21.93;41.66;98527.16;10447429;28;20239;-83
2023/09/25 12:54:49;;;;;;;2.20;2.00;;;21.50;84.90;;;22.24;41.05;98526.13;10456953;28;20225;-84
2023/09/25 12:59:53;;;;;;;2.03;1.92;;;21.70;84.40;;;22.04;42.45;98518.72;10458708;28;20221;-84
2023/09/25 13:04:58;;;;;;;2.22;2.00;;;21.40;87.00;;;22.20;42.40;98511.28;10456379;28;20637;-85
2023/09/25 13:10:04;;;;;;;2.45;2.28;;;21.50;86.60;;;22.22;41.81;98520.00;10450728;28;20228;-85
2023/09/25 13:15:10;;;;;;;2.60;2.03;;;21.70;85.50;;;21.93;43.25;98521.94;10461815;28;20237;-85
2023/09/25 13:20:15;;;;;;;2.58;2.00;;;21.40;87.40;;;21.93;43.53;98525.41;10454158;28;20225;-82
2023/09/25 13:25:19;;;;;;;2.00;1.80;;;21.30;88.20;;;22.19;43.51;98525.16;10452550;28;20226;-84
2023/09/25 13:30:22;;;;;;;2.15;2.00;;;21.60;87.50;;;21.89;43.23;98514.88;10453365;28;20297;-84
2023/09/25 13:35:28;;;;;;;2.33;2.10;;;21.40;87.10;;;21.90;44.37;98512.34;10459446;28;20220;-84
2023/09/25 13:40:32;;;;;;;2.40;1.80;;;21.30;89.20;;;22.08;43.64;98501.44;10459521;28;20225;-84
2023/09/25 13:45:35;;;;;;;2.03;1.83;;;21.70;87.90;;;22.20;43.72;98517.34;10462210;28;20237;-86
2023/09/25 13:50:40;;;;;;;2.40;2.08;;;21.70;88.60;;;22.24;44.20;98513.13;10456148;28;20217;-85
2023/09/25 13:55:46;;;;;;;2.53;2.33;;;21.50;89.40;;;22.15;44.16;98524.19;10455200;28;20220;-85
2023/09/25 14:00:49;;;;;;;3.10;2.22;;;21.40;89.50;;;21.90;45.60;98516.66;10449648;28;20225;-85
2023/09/25 14:05:54;;;;;;;2.22;2.00;;;21.20;90.40;;;21.83;45.54;98507.81;10454043;28;20256;-84
2023/09/25 14:10:59;;;;;;;2.38;2.17;;;21.20;90.40;;;21.85;45.96;98500.94;10451783;28;20240;-84
2023/09/25 14:16:08;;;;;;;2.40;2.20;;;21.30;90.60;;;21.73;46.41;98498.06;10459994;28;20229;-83
2023/09/25 14:21:17;;;;;;;2.20;2.10;;;21.20;91.00;;;21.78;46.57;98493.84;10452425;28;20260;-83
2023/09/25 14:26:21;;;;;;;2.15;2.05;;;21.20;91.00;;;22.09;45.92;98491.91;10438589;28;20230;-83
2023/09/25 14:31:25;;;;;;;2.08;1.92;;;21.40;90.90;;;21.89;46.25;98494.06;10433467;28;20226;-82
2023/09/25 14:36:30;;;;;;;3.00;2.17;;;21.20;91.20;;;22.22;46.46;98496.56;10433268;28;20753;-85
2023/09/25 14:41:33;;;;;;;1.88;1.77;;;21.50;91.40;;;22.22;46.58;98497.44;10431677;28;20256;-79
2023/09/25 14:46:36;;;;;;;3.20;2.35;;;21.50;91.50;;;22.04;47.05;98497.91;10420239;28;20232;-77
2023/09/25 14:51:41;;;;;;;2.55;2.35;;;21.40;91.70;;;21.85;47.79;98487.91;10408334;28;20241;-77
2023/09/25 14:56:44;;;;;;;3.25;2.33;;;21.30;92.00;;;21.68;48.25;98492.75;10422190;28;20327;-78
2023/09/25 15:01:48;;;;;;;2.47;2.20;;;21.10;92.30;;;21.67;48.68;98492.72;10420321;28;20238;-78
2023/09/25 15:06:54;;;;;;;2.28;1.63;;;21.10;92.50;;;21.64;49.40;98493.53;10422776;28;20217;-78
2023/09/25 15:11:58;;;;;;;2.60;2.10;;;20.90;93.20;;;21.69;49.31;98485.81;10419306;28;20261;-79
2023/09/25 15:17:01;;;;;;;2.72;2.00;;;21.00;93.30;;;21.70;48.90;98482.38;10422118;28;20279;-78
2023/09/25 15:22:06;;;;;;;3.17;2.50;;;21.00;93.20;;;21.71;49.81;98484.13;10423824;28;20232;-79
2023/09/25 15:27:09;;;;;;;2.53;2.20;;;21.00;93.70;;;21.51;50.61;98474.13;10420925;28;20307;-78
2023/09/25 15:32:13;;;;;;;2.85;2.50;;;20.90;93.80;;;21.49;51.26;98472.31;10420904;28;20583;-79
2023/09/25 15:37:18;;;;;;;2.47;2.03;;;20.90;94.30;;;21.57;50.57;98473.38;10433396;28;20515;-78
2023/09/25 15:42:22;;;;;;;3.00;2.42;;;20.80;94.40;;;21.34;51.22;98478.00;10419777;28;20241;-78
2023/09/25 15:47:25;;;;;;;3.15;2.53;;;20.80;94.30;;;21.26;52.14;98493.44;10421806;28;20236;-80
2023/09/25 15:52:30;;;;;;;2.78;2.58;;;20.70;95.00;;;21.03;53.44;98487.66;10418865;28;20229;-77
2023/09/25 15:57:33;;;;;;;3.38;2.40;;;20.60;95.60;;;21.12;53.42;98495.69;10420476;28;20229;-77
2023/09/25 16:02:36;;;;;;;2.78;2.50;;;20.50;96.00;;;21.07;53.45;98499.03;10424745;28;20336;-82
2023/09/25 16:07:43;;;;;;;2.70;2.50;;;20.50;96.10;;;21.05;53.85;98491.16;10441533;28;20228;-84
2023/09/25 16:13:12;;;;;;;2.75;2.50;;;20.40;96.40;;;20.87;54.36;98490.69;10272534;28;20625;-81
2023/09/25 16:18:26;;;;;;;3.28;2.70;;;20.40;96.70;;;20.80;55.12;98488.75;10297309;28;20243;-82
2023/09/25 16:23:32;;;;;;;3.03;2.83;;;20.20;97.30;;;20.79;55.91;98490.50;10293702;28;20255;-82
2023/09/25 16:28:35;;;;;;;2.70;2.40;;;20.10;97.80;;;20.66;56.66;98494.50;10291235;28;20223;-82
2023/09/25 16:33:38;;;;;;;2.80;2.60;;;20.10;98.20;;;20.62;56.97;98486.56;10292630;28;20287;-82
2023/09/25 16:38:43;;;;;;;3.35;3.08;;;19.90;98.80;;;20.68;57.02;98489.31;10293543;28;20984;-81
2023/09/25 16:43:47;;;;;;;3.20;2.90;;;19.80;99.10;;;20.45;58.11;98491.25;10289614;28;20220;-80
2023/09/25 16:48:51;;;;;;;3.92;2.75;;;19.70;99.60;;;20.52;57.92;98487.09;10387683;28;20230;-82
2023/09/25 16:53:56;;;;;;;3.05;2.83;;;19.70;99.90;;;20.20;59.38;98490.56;10433539;28;20702;-83
2023/09/25 16:58:59;;;;;;;3.03;2.75;;;19.40;99.90;;;19.98;59.89;98499.41;10434087;28;20222;-83
2023/09/25 17:04:03;;;;;;;3.78;3.40;;;19.20;99.90;;;19.86;60.71;98495.56;10432997;28;20255;-83
2023/09/25 17:09:08;;;;;;;3.17;2.88;;;19.10;99.90;;;19.84;61.04;98495.53;10436059;28;20242;-83
2023/09/25 17:14:12;;;;;;;3.60;3.35;;;18.90;99.90;;;19.74;62.31;98489.19;10442036;28;20224;-83
2023/09/25 17:19:15;;;;;;;6.53;3.97;;;18.80;99.90;;;19.47;64.57;98509.00;10440465;28;20233;-84
2023/09/25 17:24:20;;;;;;;10.68;5.60;;;18.60;99.90;;;19.25;65.87;98513.47;10450015;28;20236;-83
2023/09/25 17:29:23;;;;;;;4.80;4.30;;;18.40;99.90;;;19.12;66.48;98513.91;10471246;28;20273;-82
2023/09/25 17:34:28;;;;;;;5.70;3.88;;;18.20;99.90;;;18.80;69.30;98512.78;10470629;28;20233;-81
2023/09/25 17:39:32;;;;;;;4.93;3.42;;;17.70;99.90;;;18.39;71.16;98515.63;10463656;28;20325;-82
2023/09/25 17:44:36;;;;;;;4.20;3.80;;;17.40;99.90;;;18.20;71.46;98515.78;10448248;28;20222;-82
2023/09/25 17:49:40;;;;;;;3.10;2.90;;;17.20;99.90;;;17.97;73.12;98526.16;10441380;28;20237;-83
2023/09/25 17:54:45;;;;;;;3.72;3.42;;;17.00;99.90;;;17.71;74.41;98527.69;10446500;28;20233;-83
2023/09/25 17:59:49;;;;;;;3.45;3.15;;;16.80;99.90;;;17.60;74.21;98548.72;10440279;28;20237;-83
2023/09/25 18:04:52;;;;;;;3.67;3.38;;;16.60;99.90;;;17.45;75.16;98549.00;10436748;28;20221;-82
2023/09/25 18:09:57;;;;;;;3.53;3.22;;;16.40;99.90;;;17.26;77.39;98557.69;10434609;28;20327;-81
2023/09/25 18:15:06;;;;;;;3.95;3.65;;;16.30;99.90;;;17.13;77.56;98550.25;10444602;28;20222;-82
2023/09/25 18:20:10;;;;;;;4.70;4.30;;;16.10;99.90;;;16.91;80.89;98553.59;10442562;28;20225;-82
2023/09/25 18:25:15;;;;;;;4.18;3.78;;;16.00;99.90;;;16.79;80.46;98559.13;10436726;28;20578;-83
2023/09/25 18:30:19;;;;;;;4.18;3.85;;;15.90;99.90;;;16.65;82.21;98564.53;10438314;28;20283;-82
2023/09/25 18:35:22;;;;;;;4.35;3.95;;;15.70;99.90;;;16.54;82.53;98568.34;10437008;28;20279;-83
2023/09/25 18:40:27;;;;;;;4.45;4.15;;;15.60;99.90;;;16.47;83.00;98555.94;10436578;28;20260;-82
2023/09/25 18:45:31;;;;;;;4.50;4.20;;;15.60;99.90;;;16.46;83.72;98568.81;10437316;28;20994;-82
2023/09/25 18:50:38;;;;;;;4.85;4.45;;;15.60;99.90;;;16.38;84.43;98571.03;10441498;28;20278;-80
2023/09/25 18:55:50;;;;;;;4.65;4.28;;;15.40;99.90;;;16.23;84.55;98581.53;10434938;28;20221;-83
2023/09/25 19:00:57;;;;;;;4.60;4.30;;;15.30;99.90;;;16.16;86.88;98593.25;10445462;28;20231;-82
2023/09/25 19:06:12;;;;;;;4.70;4.30;;;15.20;99.90;;;16.17;87.39;98592.44;10443351;28;20283;-81
2023/09/25 19:11:22;;;;;;;5.00;4.70;;;15.10;99.90;;;16.15;88.00;98601.78;10434390;28;20252;-82
2023/09/25 19:16:31;;;;;;;5.35;4.85;;;15.00;99.90;;;15.85;89.89;98602.91;10435628;28;20637;-81
2023/09/25 19:21:44;;;;;;;4.90;4.60;;;14.80;99.90;;;15.68;90.05;98592.69;10434272;28;20238;-82
2023/09/25 19:26:57;;;;;;;4.63;4.22;;;14.70;99.90;;;15.65;89.64;98605.41;10436676;28;20257;-82
2023/09/25 19:32:03;;;;;;;5.15;4.55;;;14.60;99.90;;;15.50;89.60;98604.63;10429260;28;20231;-80
2023/09/25 19:37:20;;;;;;;4.90;4.55;;;14.60;99.90;;;15.40;89.87;98597.25;10433742;28;20232;-82
2023/09/25 19:42:36;;;;;;;5.40;5.00;;;14.40;99.90;;;15.13;90.98;98594.16;10428616;28;20246;-82
2023/09/25 19:47:47;;;;;;;5.00;4.60;;;14.30;99.90;;;15.10;90.55;98587.16;10431020;28;20256;-82
2023/09/25 19:53:04;;;;;;;4.90;4.57;;;14.20;99.90;;;14.93;91.96;98582.84;10430989;28;20225;-81
2023/09/25 19:58:13;;;;;;;5.53;5.10;;;14.00;99.90;;;14.78;92.43;98582.94;10431975;28;20312;-83
2023/09/25 20:03:17;;;;;;;5.60;5.07;;;13.90;99.90;;;14.41;95.26;98586.09;10433229;28;20232;-83
2023/09/25 20:08:36;;;;;;;5.47;5.10;;;13.70;99.90;;;14.36;95.66;98585.84;10437899;28;20655;-84
2023/09/25 20:20:22;;;;;;;5.25;4.85;;;13.60;99.90;;;14.41;95.59;98580.94;10427302;28;20229;-81
2023/09/25 20:25:58;;;;;;;5.25;4.85;;;13.60;99.90;;;14.36;94.60;98578.13;10416699;28;20670;-83
2023/09/25 20:31:11;;;;;;;5.05;4.60;;;13.50;99.90;;;14.31;94.75;98583.84;10429631;28;20259;-84
2023/09/25 20:36:14;;;;;;;5.43;5.00;;;13.50;99.90;;;14.35;95.13;98586.66;10429538;28;20710;-83
2023/09/25 20:41:33;;;;;;;6.03;5.45;;;13.50;99.90;;;14.28;94.42;98589.72;10451429;28;20242;-82
2023/09/25 20:46:52;;;;;;;5.97;5.47;;;13.30;99.90;;;14.08;95.45;98585.13;10430633;28;20228;-83
2023/09/25 20:51:58;;;;;;;5.95;5.45;;;13.20;99.90;;;13.94;96.30;98585.28;10438198;28;20236;-83
2023/09/25 20:57:01;;;;;;;6.53;6.03;;;13.10;99.90;;;13.71;99.36;98589.13;10437845;28;20312;-85
2023/09/25 21:02:06;;;;;;;7.10;6.60;;;13.00;99.90;;;13.70;98.33;98582.19;10438152;28;20225;-84
2023/09/25 21:07:10;;;;;;;6.97;6.47;;;13.00;99.90;;;13.74;97.83;98589.31;10439971;28;20229;-84
2023/09/25 21:12:13;;;;;;;6.82;6.22;;;13.00;99.90;;;13.60;99.04;98579.94;10438476;28;20225;-83
2023/09/25 21:17:18;;;;;;;6.75;6.25;;;12.90;99.90;;;13.70;98.50;98576.19;10442396;28;20226;-84
2023/09/25 21:22:22;;;;;;;7.75;7.03;;;12.90;99.90;;;13.41;100.00;98572.84;10438197;28;20280;-81